Vidfoss — V2QK4 — position and weather

sailwx.info

Track history (hours):
 
Tides and Currents Weather Stations Pressure Air Temp Water Temp Dewpoint Dewpoint Depression Visibility Wind Speed Wind Dir Waves Ship Positions

Vidfoss

Last reported at 2016-Dec-02 00:20 UTC. Time now 2016-Dec-04 12:19 UTC.
Position N 54°42' W 000°01'.

Length 93 m; draft 4.3 m.

Type: Cargo ship. MMSI: 305846000.

Date/timePositionNaut miles runAvg speedWind from/ knotsBaromVisibWave heightAir tempDewpointWater temp
2016-Dec-02 00:20N 54°42' W 000°01'911.5
2016-Dec-01 23:33N 54°33' E 000°02'1212.0
2016-Dec-01 22:33N 54°21' E 000°07'1212.2
2016-Dec-01 21:33N 54°09' E 000°12'35 8.7
2016-Dec-01 17:33N 53°35' E 000°02'4 3.9
2016-Dec-01 16:33N 53°35' W 000°04'0 0.0
2016-Dec-01 15:33N 53°35' W 000°04'0 0.0
2016-Dec-01 14:33N 53°35' W 000°04'0 0.0
2016-Dec-01 13:33N 53°35' W 000°04'0 0.0
2016-Dec-01 12:33N 53°35' W 000°04'0 0.0
2016-Dec-01 11:33N 53°35' W 000°04'0 0.0
2016-Dec-01 10:33N 53°35' W 000°04'0 0.0
2016-Dec-01 09:33N 53°35' W 000°04'0 0.0
2016-Dec-01 08:33N 53°35' W 000°04'0 0.0
2016-Dec-01 07:33N 53°35' W 000°04'0 0.0
2016-Dec-01 06:32N 53°35' W 000°04'0 0.0
2016-Dec-01 05:32N 53°35' W 000°04'0 0.0
2016-Dec-01 04:30N 53°35' W 000°04'0 0.0
2016-Dec-01 03:32N 53°35' W 000°04'0 0.0
2016-Dec-01 02:33N 53°35' W 000°04'0 0.0
2016-Dec-01 01:33N 53°35' W 000°04'0 0.0
2016-Dec-01 00:33N 53°35' W 000°04'0 0.0
2016-Nov-30 23:33N 53°35' W 000°04'0 0.0
2016-Nov-30 22:33N 53°35' W 000°04'0 0.0
2016-Nov-30 21:33N 53°35' W 000°04'0 0.0
2016-Nov-30 20:33N 53°35' W 000°04'0 0.0
2016-Nov-30 19:31N 53°35' W 000°04'0 0.0
2016-Nov-30 18:33N 53°35' W 000°04'0 0.1
2016-Nov-30 17:33N 53°35' W 000°04'1 1.4
2016-Nov-30 16:33N 53°35' W 000°02'60 7.2
2016-Nov-30 08:16N 53°11' E 001°29'6 9.1
2016-Nov-30 07:33N 53°09' E 001°40'9911.0
2016-Nov-29 22:33N 52°31' E 004°10'1111.4
2016-Nov-29 21:33N 52°28' E 004°29'6 5.5
2016-Nov-29 20:33N 52°28' E 004°38'1 1.4
2016-Nov-29 19:33N 52°28' E 004°40'0 0.0
2016-Nov-29 18:34N 52°28' E 004°40'0 0.0
2016-Nov-29 17:34N 52°28' E 004°40'0 0.0
2016-Nov-29 16:33N 52°28' E 004°40'0 0.0
2016-Nov-29 15:33N 52°28' E 004°40'0 0.0
2016-Nov-29 14:33N 52°28' E 004°40'0 0.0
2016-Nov-29 13:33N 52°28' E 004°40'0 0.0
2016-Nov-29 12:34N 52°28' E 004°40'0 0.0
2016-Nov-29 11:33N 52°28' E 004°40'0 0.0
2016-Nov-29 10:33N 52°28' E 004°40'0 0.0
2016-Nov-29 09:33N 52°28' E 004°40'0 0.0
2016-Nov-29 08:33N 52°28' E 004°40'0 0.0
2016-Nov-29 07:33N 52°28' E 004°40'0 0.0
2016-Nov-29 06:34N 52°28' E 004°40'0 0.0
2016-Nov-29 05:33N 52°28' E 004°40'0 0.0
2016-Nov-29 04:33N 52°28' E 004°40'0 0.0
2016-Nov-29 03:34N 52°28' E 004°40'0 0.0
2016-Nov-29 02:33N 52°28' E 004°40'0 0.0
2016-Nov-29 01:34N 52°28' E 004°40'0 0.0
2016-Nov-29 00:33N 52°28' E 004°40'2 2.1
2016-Nov-28 23:34N 52°28' E 004°36'2 2.3
2016-Nov-28 22:33N 52°28' E 004°33'4 4.4
2016-Nov-28 21:33N 52°31' E 004°29'2 1.6
2016-Nov-28 20:33N 52°33' E 004°29'6 5.6
2016-Nov-28 19:33N 52°39' E 004°29'7 7.0
2016-Nov-28 18:33N 52°46' E 004°29'489486.2
2016-Nov-28 17:33N 60°55' E 004°46'9 9.0
2016-Nov-28 16:33N 61°04' E 004°44'9 8.7
2016-Nov-28 15:32N 61°13' E 004°42'434108.8
2016-Nov-28 11:33N 53°59' E 004°54'472469.9
2016-Nov-28 10:33N 61°51' E 005°16'7 6.5
2016-Nov-28 09:32N 61°56' E 005°07'1 0.7
2016-Nov-28 08:33N 61°56' E 005°08'0 0.5
2016-Nov-28 07:33N 61°57' E 005°08'8 7.6
2016-Nov-28 06:33N 62°04' E 005°07'7 7.3
2016-Nov-28 05:32N 62°11' E 005°02'5 5.1
2016-Nov-28 04:34N 62°14' E 005°11'4 3.7
2016-Nov-28 03:33N 62°12' E 005°18'6 5.6
2016-Nov-28 02:33N 62°12' E 005°30'7 7.1
2016-Nov-28 01:33N 62°12' E 005°45'7 6.7
2016-Nov-28 00:33N 62°16' E 005°57'7 7.2
2016-Nov-27 23:32N 62°21' E 006°08'6 6.0
2016-Nov-27 22:33N 62°27' E 006°05'2 1.9
2016-Nov-27 21:33N 62°28' E 006°08'0 0.0
2016-Nov-27 20:33N 62°28' E 006°08'0 0.0
2016-Nov-27 19:33N 62°28' E 006°08'0 0.0
2016-Nov-27 18:33N 62°28' E 006°08'1 1.0
2016-Nov-27 17:27N 62°27' E 006°08'4 4.7
2016-Nov-27 16:32N 62°31' E 006°09'17 7.3
2016-Nov-27 14:16N 62°44' E 006°31'253126.2
2016-Nov-27 12:15N 58°34' E 005°11'912.3
2016-Nov-27 11:33N 58°43' E 005°13'1312.9
2016-Nov-27 10:33N 58°56' E 005°17'1212.4
2016-Nov-27 09:33N 59°08' E 005°20'248105.4
2016-Nov-27 07:12N 63°08' E 007°35'4 5.5
2016-Nov-27 06:33N 63°09' E 007°42'13 6.2
2016-Nov-27 04:27N 63°16' E 008°07'6 6.3
2016-Nov-27 03:33N 63°20' E 008°17'4 3.6
2016-Nov-27 02:32N 63°23' E 008°12'0 0.0
2016-Nov-27 01:33N 63°23' E 008°12'16 5.2
2016-Nov-26 22:33N 63°27' E 008°46'6 5.5
2016-Nov-26 21:34N 63°29' E 008°57'5 5.3
2016-Nov-26 20:32N 63°31' E 009°08'5 5.1
2016-Nov-26 19:33N 63°33' E 009°18'6 5.8
2016-Nov-26 18:32N 63°37' E 009°28'21 6.9
2016-Nov-26 15:33N 63°56' E 009°47'160161.6
2016-Nov-26 14:33N 62°13' E 005°15'16 8.0
2016-Nov-26 12:33N 62°12' E 005°49'1010.5
2016-Nov-26 11:33N 62°19' E 006°05'170122.5
2016-Nov-26 10:10N 64°22' E 010°28'5 6.1
2016-Nov-26 09:17N 64°27' E 010°28'27 6.7
2016-Nov-26 05:21N 64°48' E 011°07'169190.8
2016-Nov-26 04:28N 62°48' E 006°36'184181.6
2016-Nov-26 03:27N 64°58' E 011°32'16386.3
2016-Nov-26 01:33N 63°02' E 007°11'7 7.2
2016-Nov-26 00:33N 63°04' E 007°25'8 7.8
2016-Nov-25 23:33N 63°09' E 007°40'8 8.3
2016-Nov-25 22:33N 63°13' E 007°55'18793.2
2016-Nov-25 20:33N 65°43' E 012°16'9 8.6
2016-Nov-25 19:32N 65°52' E 012°22'11 8.4
2016-Nov-25 18:15N 66°01' E 012°33'174101.5
2016-Nov-25 16:32N 63°31' E 009°08'8 7.7
2016-Nov-25 15:28N 63°35' E 009°24'910.2
2016-Nov-25 14:33N 63°43' E 009°32'10 9.7
2016-Nov-25 13:33N 63°52' E 009°42'10 9.9
2016-Nov-25 12:30N 64°02' E 009°48'56 9.3
2016-Nov-25 06:29N 64°47' E 011°05'1010.5
2016-Nov-25 05:33N 64°54' E 011°21'1211.7
2016-Nov-25 04:32N 65°02' E 011°42'1111.5
2016-Nov-25 03:33N 65°12' E 011°53'  
Track history (hours):
 
Tides and Currents Weather Stations Pressure Air Temp Water Temp Dewpoint Dewpoint Depression Visibility Wind Speed Wind Dir Waves Ship Positions

Vidfoss

Last reported at 2016-Dec-02 00:20 UTC. Time now 2016-Dec-04 12:19 UTC.
Position N 54°42' W 000°01'.

Length 93 m; draft 4.3 m.

Type: Cargo ship. MMSI: 305846000.

Date/timePositionNaut miles runAvg speedWind from/ knotsBaromVisibWave heightAir tempDewpointWater temp
2016-Dec-02 00:20N 54°42' W 000°01'911.5
2016-Dec-01 23:33N 54°33' E 000°02'1212.0
2016-Dec-01 22:33N 54°21' E 000°07'1212.2
2016-Dec-01 21:33N 54°09' E 000°12'35 8.7
2016-Dec-01 17:33N 53°35' E 000°02'4 3.9
2016-Dec-01 16:33N 53°35' W 000°04'0 0.0
2016-Dec-01 15:33N 53°35' W 000°04'0 0.0
2016-Dec-01 14:33N 53°35' W 000°04'0 0.0
2016-Dec-01 13:33N 53°35' W 000°04'0 0.0
2016-Dec-01 12:33N 53°35' W 000°04'0 0.0
2016-Dec-01 11:33N 53°35' W 000°04'0 0.0
2016-Dec-01 10:33N 53°35' W 000°04'0 0.0
2016-Dec-01 09:33N 53°35' W 000°04'0 0.0
2016-Dec-01 08:33N 53°35' W 000°04'0 0.0
2016-Dec-01 07:33N 53°35' W 000°04'0 0.0
2016-Dec-01 06:32N 53°35' W 000°04'0 0.0
2016-Dec-01 05:32N 53°35' W 000°04'0 0.0
2016-Dec-01 04:30N 53°35' W 000°04'0 0.0
2016-Dec-01 03:32N 53°35' W 000°04'0 0.0
2016-Dec-01 02:33N 53°35' W 000°04'0 0.0
2016-Dec-01 01:33N 53°35' W 000°04'0 0.0
2016-Dec-01 00:33N 53°35' W 000°04'0 0.0
2016-Nov-30 23:33N 53°35' W 000°04'0 0.0
2016-Nov-30 22:33N 53°35' W 000°04'0 0.0
2016-Nov-30 21:33N 53°35' W 000°04'0 0.0
2016-Nov-30 20:33N 53°35' W 000°04'0 0.0
2016-Nov-30 19:31N 53°35' W 000°04'0 0.0
2016-Nov-30 18:33N 53°35' W 000°04'0 0.1
2016-Nov-30 17:33N 53°35' W 000°04'1 1.4
2016-Nov-30 16:33N 53°35' W 000°02'60 7.2
2016-Nov-30 08:16N 53°11' E 001°29'6 9.1
2016-Nov-30 07:33N 53°09' E 001°40'9911.0
2016-Nov-29 22:33N 52°31' E 004°10'1111.4
2016-Nov-29 21:33N 52°28' E 004°29'6 5.5
2016-Nov-29 20:33N 52°28' E 004°38'1 1.4
2016-Nov-29 19:33N 52°28' E 004°40'0 0.0
2016-Nov-29 18:34N 52°28' E 004°40'0 0.0
2016-Nov-29 17:34N 52°28' E 004°40'0 0.0
2016-Nov-29 16:33N 52°28' E 004°40'0 0.0
2016-Nov-29 15:33N 52°28' E 004°40'0 0.0
2016-Nov-29 14:33N 52°28' E 004°40'0 0.0
2016-Nov-29 13:33N 52°28' E 004°40'0 0.0
2016-Nov-29 12:34N 52°28' E 004°40'0 0.0
2016-Nov-29 11:33N 52°28' E 004°40'0 0.0
2016-Nov-29 10:33N 52°28' E 004°40'0 0.0
2016-Nov-29 09:33N 52°28' E 004°40'0 0.0
2016-Nov-29 08:33N 52°28' E 004°40'0 0.0
2016-Nov-29 07:33N 52°28' E 004°40'0 0.0
2016-Nov-29 06:34N 52°28' E 004°40'0 0.0
2016-Nov-29 05:33N 52°28' E 004°40'0 0.0
2016-Nov-29 04:33N 52°28' E 004°40'0 0.0
2016-Nov-29 03:34N 52°28' E 004°40'0 0.0
2016-Nov-29 02:33N 52°28' E 004°40'0 0.0
2016-Nov-29 01:34N 52°28' E 004°40'0 0.0
2016-Nov-29 00:33N 52°28' E 004°40'2 2.1
2016-Nov-28 23:34N 52°28' E 004°36'2 2.3
2016-Nov-28 22:33N 52°28' E 004°33'4 4.4
2016-Nov-28 21:33N 52°31' E 004°29'2 1.6
2016-Nov-28 20:33N 52°33' E 004°29'6 5.6
2016-Nov-28 19:33N 52°39' E 004°29'7 7.0
2016-Nov-28 18:33N 52°46' E 004°29'489486.2
2016-Nov-28 17:33N 60°55' E 004°46'9 9.0
2016-Nov-28 16:33N 61°04' E 004°44'9 8.7
2016-Nov-28 15:32N 61°13' E 004°42'434108.8
2016-Nov-28 11:33N 53°59' E 004°54'472469.9
2016-Nov-28 10:33N 61°51' E 005°16'7 6.5
2016-Nov-28 09:32N 61°56' E 005°07'1 0.7
2016-Nov-28 08:33N 61°56' E 005°08'0 0.5
2016-Nov-28 07:33N 61°57' E 005°08'8 7.6
2016-Nov-28 06:33N 62°04' E 005°07'7 7.3
2016-Nov-28 05:32N 62°11' E 005°02'5 5.1
2016-Nov-28 04:34N 62°14' E 005°11'4 3.7
2016-Nov-28 03:33N 62°12' E 005°18'6 5.6
2016-Nov-28 02:33N 62°12' E 005°30'7 7.1
2016-Nov-28 01:33N 62°12' E 005°45'7 6.7
2016-Nov-28 00:33N 62°16' E 005°57'7 7.2
2016-Nov-27 23:32N 62°21' E 006°08'6 6.0
2016-Nov-27 22:33N 62°27' E 006°05'2 1.9
2016-Nov-27 21:33N 62°28' E 006°08'0 0.0
2016-Nov-27 20:33N 62°28' E 006°08'0 0.0
2016-Nov-27 19:33N 62°28' E 006°08'0 0.0
2016-Nov-27 18:33N 62°28' E 006°08'1 1.0
2016-Nov-27 17:27N 62°27' E 006°08'4 4.7
2016-Nov-27 16:32N 62°31' E 006°09'17 7.3
2016-Nov-27 14:16N 62°44' E 006°31'253126.2
2016-Nov-27 12:15N 58°34' E 005°11'912.3
2016-Nov-27 11:33N 58°43' E 005°13'1312.9
2016-Nov-27 10:33N 58°56' E 005°17'1212.4
2016-Nov-27 09:33N 59°08' E 005°20'248105.4
2016-Nov-27 07:12N 63°08' E 007°35'4 5.5
2016-Nov-27 06:33N 63°09' E 007°42'13 6.2
2016-Nov-27 04:27N 63°16' E 008°07'6 6.3
2016-Nov-27 03:33N 63°20' E 008°17'4 3.6
2016-Nov-27 02:32N 63°23' E 008°12'0 0.0
2016-Nov-27 01:33N 63°23' E 008°12'16 5.2
2016-Nov-26 22:33N 63°27' E 008°46'6 5.5
2016-Nov-26 21:34N 63°29' E 008°57'5 5.3
2016-Nov-26 20:32N 63°31' E 009°08'5 5.1
2016-Nov-26 19:33N 63°33' E 009°18'6 5.8
2016-Nov-26 18:32N 63°37' E 009°28'21 6.9
2016-Nov-26 15:33N 63°56' E 009°47'160161.6
2016-Nov-26 14:33N 62°13' E 005°15'16 8.0
2016-Nov-26 12:33N 62°12' E 005°49'1010.5
2016-Nov-26 11:33N 62°19' E 006°05'170122.5
2016-Nov-26 10:10N 64°22' E 010°28'5 6.1
2016-Nov-26 09:17N 64°27' E 010°28'27 6.7
2016-Nov-26 05:21N 64°48' E 011°07'169190.8
2016-Nov-26 04:28N 62°48' E 006°36'184181.6
2016-Nov-26 03:27N 64°58' E 011°32'16386.3
2016-Nov-26 01:33N 63°02' E 007°11'7 7.2
2016-Nov-26 00:33N 63°04' E 007°25'8 7.8
2016-Nov-25 23:33N 63°09' E 007°40'8 8.3
2016-Nov-25 22:33N 63°13' E 007°55'18793.2
2016-Nov-25 20:33N 65°43' E 012°16'9 8.6
2016-Nov-25 19:32N 65°52' E 012°22'11 8.4
2016-Nov-25 18:15N 66°01' E 012°33'174101.5
2016-Nov-25 16:32N 63°31' E 009°08'8 7.7
2016-Nov-25 15:28N 63°35' E 009°24'910.2
2016-Nov-25 14:33N 63°43' E 009°32'10 9.7
2016-Nov-25 13:33N 63°52' E 009°42'10 9.9
2016-Nov-25 12:30N 64°02' E 009°48'56 9.3
2016-Nov-25 06:29N 64°47' E 011°05'1010.5
2016-Nov-25 05:33N 64°54' E 011°21'1211.7
2016-Nov-25 04:32N 65°02' E 011°42'1111.5
2016-Nov-25 03:33N 65°12' E 011°53'  

Dump ship's entire track history